Dagus Mines, PA (15831)

6:37 AM EDT on October 01, 2014 (GMT -0400)
Emerald Estates | Change Station
CLOSE
Current Station
Personal Weather Station
Location: Saint Marys, PA
Elevation: 1870 ft
Nearby Weather Stations
Active Advisory: Dense Fog Advisory

Elev 1870 ft 41.43 °N, 78.60 °W | Updated 12 seconds ago

Fog
Fog
52.7 °F
Feels Like 52.7 °F
N
0.0
Wind Variable Wind from North
Gusts 0.0 mph

Today
High -- | Low -- °F
--% Chance of Precip.
Yesterday
High -- | Low -- °F
Precip. -- in
7:11 AM 6:56 PM
Waxing Crescent, 46% visible
Pressure 29.98 in
Visibility 0.2 miles
Clouds
Dew Point 52 °F
Humidity 98%
Rainfall 0.00 in
Snow Depth Not available.
UV Not available.
Pollen .50 out of 12
Air Quality Not available.
Flu Activity Not available.
METAR KDUJ 010953Z AUTO 06003KT 1/4SM FG VV002 11/11 A2999 RMK AO2 SLP151 T01110111

More Conditions Fewer Conditions

Pressure 29.98 in
Visibility 0.2 miles
Clouds
Dew Point 52 °F
Humidity 98%
Rainfall 0.00 in
Snow Depth Not available.
UV Not available.
Pollen .50 out of 12
Air Quality Not available.
Flu Activity Not available.
METAR KDUJ 010953Z AUTO 06003KT 1/4SM FG VV002 11/11 A2999 RMK AO2 SLP151 T01110111

More Conditions Fewer Conditions

10-Day Weather Forecast

Almanac

Astronomy

Oct. 01, 2014 Rise Set
Actual Time 7:11 AM EDT 6:56 PM EDT
Civil Twilight 6:43 AM EDT 7:23 PM EDT
Nautical Twilight 6:11 AM EDT 7:55 PM EDT
Astronomical Twilight 5:39 AM EDT 8:28 PM EDT
Moon 2:13 PM EDT No Moon Set
Length of Visible Light 12h 40m
Length of Day
11h 45m
Tomorrow will be 2m 44s shorter.
Waxing Crescent, 46% of the Moon is Illuminated
Today
Waxing Crescent
Oct 1
First Quarter
Oct 8
Full
Oct 15
Last Quarter
Oct 23
New

Today's Extremes

State Highs State Lows

Community

WunderPhotos

Upload Photos

1,757,905 photos uploaded!

WunderBlogs® & News

Nearby

Snow Depth

Station Depth Elevation
No new snow has been reported.

Earthquake Activity

City Distance Mag. Time & Date
No recent earthquake activity has been reported nearby.
Minimum magnitude displayed is 2.5.

Coastal Water Temperatures

Place Temperature
No Stations Reporting

Nearby Weather Stations